createdAt,value
2018-08-23T00:00:47.080Z,21.00
2018-08-23T00:03:20.855Z,21.00
2018-08-23T00:05:55.642Z,21.10
2018-08-23T00:08:24.660Z,21.10
2018-08-23T00:10:53.864Z,21.10
2018-08-23T00:13:22.724Z,21.10
2018-08-23T00:15:51.179Z,21.00
2018-08-23T00:18:19.588Z,20.90
2018-08-23T00:20:48.017Z,20.90
2018-08-23T00:23:16.363Z,20.90
2018-08-23T00:25:44.800Z,20.80
2018-08-23T00:28:13.185Z,20.90
2018-08-23T00:30:43.532Z,21.00
2018-08-23T00:33:11.892Z,21.00
2018-08-23T00:35:40.287Z,20.90
2018-08-23T00:38:08.826Z,20.90
2018-08-23T00:40:39.583Z,20.90
2018-08-23T00:43:09.289Z,20.90
2018-08-23T00:45:37.694Z,20.90
2018-08-23T00:48:06.099Z,20.90
2018-08-23T00:50:58.245Z,20.90
2018-08-23T00:53:27.375Z,20.80
2018-08-23T00:56:12.241Z,20.80
2018-08-23T00:58:45.468Z,20.80
2018-08-23T01:01:14.307Z,20.70
2018-08-23T01:03:43.311Z,20.70
2018-08-23T01:06:11.722Z,20.60
2018-08-23T01:08:40.138Z,20.60
2018-08-23T01:11:09.449Z,20.50
2018-08-23T01:13:37.863Z,20.60
2018-08-23T01:16:06.282Z,20.50
2018-08-23T01:18:34.667Z,20.40
2018-08-23T01:21:10.418Z,20.40
2018-08-23T01:23:39.642Z,20.50
2018-08-23T01:26:09.037Z,20.50
2018-08-23T01:28:37.422Z,20.50
2018-08-23T01:31:22.458Z,20.50
2018-08-23T01:33:59.821Z,20.50
2018-08-23T01:36:31.626Z,20.40
2018-08-23T01:39:04.887Z,20.40
2018-08-23T01:41:33.275Z,20.30
2018-08-23T01:44:01.611Z,20.40
2018-08-23T01:46:36.152Z,20.30
2018-08-23T01:49:05.858Z,20.30
2018-08-23T01:51:34.433Z,20.30
2018-08-23T01:54:02.893Z,20.30
2018-08-23T01:56:31.287Z,20.20
2018-08-23T01:58:59.717Z,20.20
2018-08-23T02:01:28.054Z,20.10
2018-08-23T02:03:56.400Z,20.00
2018-08-23T02:06:29.030Z,20.10
2018-08-23T02:08:57.395Z,20.10
2018-08-23T02:11:25.754Z,20.10
2018-08-23T02:13:54.150Z,20.20
2018-08-23T02:16:22.785Z,20.10
2018-08-23T02:18:51.236Z,20.10
2018-08-23T02:21:19.610Z,20.10
2018-08-23T02:23:52.455Z,20.10
2018-08-23T02:26:20.831Z,20.10
2018-08-23T02:28:50.129Z,20.10
2018-08-23T02:31:18.662Z,20.00
2018-08-23T02:33:46.978Z,20.10
2018-08-23T02:36:16.291Z,20.10
2018-08-23T02:38:45.599Z,20.00
2018-08-23T02:41:14.074Z,19.90
2018-08-23T02:43:42.739Z,20.00
2018-08-23T02:46:11.110Z,19.90
2018-08-23T02:48:39.470Z,19.90
2018-08-23T02:51:07.923Z,19.90
2018-08-23T02:53:46.309Z,19.80
2018-08-23T02:56:19.457Z,19.80
2018-08-23T02:59:01.214Z,19.80
2018-08-23T03:01:32.304Z,19.90
2018-08-23T03:04:14.897Z,19.90
2018-08-23T03:06:49.803Z,19.90
2018-08-23T03:09:21.033Z,19.80
2018-08-23T03:11:50.714Z,19.70
2018-08-23T03:14:20.275Z,19.70
2018-08-23T03:16:54.093Z,19.70
2018-08-23T03:19:22.467Z,19.70
2018-08-23T03:21:58.522Z,19.70
2018-08-23T03:24:27.075Z,19.70
2018-08-23T03:26:55.419Z,19.80
2018-08-23T03:29:23.780Z,19.70
2018-08-23T03:31:52.168Z,19.80
2018-08-23T03:34:20.595Z,19.80
2018-08-23T03:36:48.914Z,19.80
2018-08-23T03:39:17.250Z,19.70
2018-08-23T03:41:45.643Z,19.70
2018-08-23T03:44:25.177Z,19.70
2018-08-23T03:46:54.683Z,19.70
2018-08-23T03:49:34.159Z,19.70
2018-08-23T03:52:02.465Z,19.70
2018-08-23T03:54:31.353Z,19.80
2018-08-23T03:57:13.404Z,19.70
2018-08-23T03:59:47.080Z,19.70
2018-08-23T04:02:16.561Z,19.70
2018-08-23T04:04:46.801Z,19.70
2018-08-23T04:07:15.355Z,19.80
2018-08-23T04:09:43.959Z,19.70
2018-08-23T04:12:12.304Z,19.70
2018-08-23T04:14:40.757Z,19.70
2018-08-23T04:17:10.442Z,19.80
2018-08-23T04:19:53.395Z,19.80
2018-08-23T04:22:21.778Z,19.80
2018-08-23T04:24:54.393Z,19.80
2018-08-23T04:27:22.888Z,19.70
2018-08-23T04:29:51.245Z,19.80
2018-08-23T04:32:29.257Z,19.70
2018-08-23T04:34:59.561Z,19.80
2018-08-23T04:37:28.535Z,19.70
2018-08-23T04:40:02.136Z,19.80
2018-08-23T04:42:30.504Z,19.80
2018-08-23T04:45:08.014Z,19.80
2018-08-23T04:47:37.790Z,19.90
2018-08-23T04:50:06.135Z,19.90
2018-08-23T04:52:34.651Z,20.00
2018-08-23T04:55:03.111Z,20.10
2018-08-23T04:57:31.455Z,20.10
2018-08-23T04:59:59.854Z,20.10
2018-08-23T05:02:28.200Z,20.10
2018-08-23T05:04:56.540Z,20.20
2018-08-23T05:07:24.936Z,20.30
2018-08-23T05:09:53.351Z,20.30
2018-08-23T05:12:21.777Z,20.40
2018-08-23T05:14:50.173Z,20.30
2018-08-23T05:17:18.532Z,20.40
2018-08-23T05:19:46.905Z,20.50
2018-08-23T05:22:15.403Z,20.60
2018-08-23T05:24:43.757Z,20.60
2018-08-23T05:27:12.718Z,20.70
2018-08-23T05:29:41.134Z,20.90
2018-08-23T05:32:09.457Z,20.90
2018-08-23T05:34:37.808Z,21.00
2018-08-23T05:37:07.808Z,21.10
2018-08-23T05:39:47.936Z,21.20
2018-08-23T05:42:19.412Z,21.20
2018-08-23T05:44:47.775Z,21.40
2018-08-23T05:47:16.073Z,21.50
2018-08-23T05:49:44.419Z,21.60
2018-08-23T05:52:12.868Z,21.80
2018-08-23T05:54:41.217Z,21.80
2018-08-23T05:57:10.618Z,21.80
2018-08-23T05:59:38.988Z,21.90
2018-08-23T06:02:07.400Z,22.00
2018-08-23T06:04:42.606Z,22.10
2018-08-23T06:07:11.143Z,22.30
2018-08-23T06:09:41.394Z,22.40
2018-08-23T06:12:09.781Z,22.60
2018-08-23T06:14:38.149Z,22.70
2018-08-23T06:17:06.646Z,22.90
2018-08-23T06:19:35.004Z,23.00
2018-08-23T06:22:03.328Z,23.30
2018-08-23T06:24:31.935Z,23.80
2018-08-23T06:27:01.405Z,24.90
2018-08-23T06:29:31.170Z,26.40
2018-08-23T06:32:10.407Z,27.70
2018-08-23T06:34:46.176Z,29.00
2018-08-23T06:37:15.666Z,30.00
2018-08-23T06:39:44.079Z,30.60
2018-08-23T06:42:12.482Z,31.20
2018-08-23T06:44:51.574Z,31.40
2018-08-23T06:47:21.503Z,31.90
2018-08-23T06:49:51.155Z,32.10
2018-08-23T06:52:30.573Z,32.50
2018-08-23T06:54:59.013Z,32.90
2018-08-23T06:57:30.351Z,32.90
2018-08-23T06:59:58.796Z,33.20
2018-08-23T07:02:27.211Z,33.40
2018-08-23T07:04:55.661Z,33.50
2018-08-23T07:07:24.002Z,33.60
2018-08-23T07:09:52.345Z,33.60
2018-08-23T07:12:21.506Z,33.60
2018-08-23T07:14:50.956Z,33.50
2018-08-23T07:17:24.787Z,33.50
2018-08-23T07:19:53.600Z,33.40
2018-08-23T07:22:26.205Z,33.70
2018-08-23T07:24:56.083Z,33.30
2018-08-23T07:27:24.493Z,33.50
2018-08-23T07:29:54.990Z,33.50
2018-08-23T07:32:24.687Z,33.50
2018-08-23T07:35:01.260Z,33.50
2018-08-23T07:37:30.348Z,33.00
2018-08-23T07:40:04.184Z,32.70
2018-08-23T07:42:33.423Z,32.90
2018-08-23T07:45:02.351Z,32.70
2018-08-23T07:47:31.496Z,32.50
2018-08-23T07:50:01.001Z,32.40
2018-08-23T07:52:30.844Z,32.20
2018-08-23T07:54:59.373Z,32.30
2018-08-23T07:57:31.108Z,32.30
2018-08-23T08:00:00.609Z,31.80
2018-08-23T08:02:29.268Z,31.70
2018-08-23T08:04:58.301Z,31.40
2018-08-23T08:07:27.621Z,31.40
2018-08-23T08:09:56.607Z,31.10
2018-08-23T08:12:38.068Z,31.10
2018-08-23T08:15:08.758Z,31.00
2018-08-23T08:17:37.166Z,30.80
2018-08-23T08:20:06.930Z,30.60
2018-08-23T08:22:35.278Z,30.90
2018-08-23T08:25:09.976Z,31.00
2018-08-23T08:27:38.861Z,30.90
2018-08-23T08:30:09.088Z,30.70
2018-08-23T08:32:37.401Z,30.20
2018-08-23T08:35:05.931Z,30.20
2018-08-23T08:37:34.259Z,30.30
2018-08-23T08:40:02.705Z,30.20
2018-08-23T08:42:32.493Z,30.00
2018-08-23T08:45:07.093Z,30.00
2018-08-23T08:47:35.502Z,29.90
2018-08-23T08:50:03.923Z,29.90
2018-08-23T08:52:32.344Z,29.90
2018-08-23T08:55:00.694Z,30.10
2018-08-23T08:57:31.967Z,30.00
2018-08-23T09:00:00.762Z,30.00
2018-08-23T09:02:31.085Z,30.20
2018-08-23T09:04:59.555Z,30.20
2018-08-23T09:07:32.308Z,30.00
2018-08-23T09:10:00.803Z,30.30
2018-08-23T09:12:32.397Z,30.30
2018-08-23T09:15:00.766Z,30.80
2018-08-23T09:17:38.688Z,31.10
2018-08-23T09:20:09.185Z,31.30
2018-08-23T09:22:41.901Z,31.20
2018-08-23T09:25:20.746Z,31.30
2018-08-23T09:27:49.582Z,31.80
2018-08-23T09:30:23.339Z,31.80
2018-08-23T09:32:51.831Z,32.00
2018-08-23T09:35:20.762Z,32.20
2018-08-23T09:37:55.610Z,32.50
2018-08-23T09:40:25.238Z,32.00
2018-08-23T09:42:53.675Z,32.10
2018-08-23T09:45:22.085Z,32.30
2018-08-23T09:47:50.390Z,32.40
2018-08-23T09:50:18.774Z,32.50
2018-08-23T09:52:48.256Z,32.50
2018-08-23T09:55:17.802Z,32.60
2018-08-23T09:57:46.439Z,32.30
2018-08-23T10:00:18.996Z,32.30
2018-08-23T10:02:52.807Z,32.50
2018-08-23T10:05:26.581Z,32.60
2018-08-23T10:08:00.265Z,32.40
2018-08-23T10:10:34.035Z,32.40
2018-08-23T10:13:07.829Z,32.70
2018-08-23T10:15:44.389Z,33.00
2018-08-23T10:18:18.205Z,33.30
2018-08-23T10:20:54.512Z,33.20
2018-08-23T10:23:24.592Z,32.30
2018-08-23T10:25:55.262Z,32.50
2018-08-23T10:28:27.818Z,32.80
2018-08-23T10:30:56.977Z,32.70
2018-08-23T10:33:25.725Z,32.30
2018-08-23T10:35:56.874Z,32.50
2018-08-23T10:38:26.753Z,32.80
2018-08-23T10:40:59.396Z,32.70
2018-08-23T10:43:33.192Z,32.10
2018-08-23T10:46:04.433Z,31.80
2018-08-23T10:48:32.925Z,31.20
2018-08-23T10:51:01.307Z,30.70
2018-08-23T10:53:29.521Z,31.10
2018-08-23T10:55:57.809Z,31.60
2018-08-23T10:58:26.155Z,32.00
2018-08-23T11:00:54.502Z,32.00
2018-08-23T11:03:22.866Z,32.20
2018-08-23T11:05:51.345Z,32.60
2018-08-23T11:08:21.589Z,32.70
2018-08-23T11:10:55.357Z,32.90
2018-08-23T11:13:29.081Z,33.00
2018-08-23T11:16:02.882Z,33.10
2018-08-23T11:18:36.685Z,33.40
2018-08-23T11:21:05.001Z,33.40
2018-08-23T11:23:33.385Z,33.30
2018-08-23T11:26:01.971Z,33.40
2018-08-23T11:28:30.296Z,33.50
2018-08-23T11:31:01.253Z,33.50
2018-08-23T11:33:29.613Z,33.40
2018-08-23T11:35:58.021Z,33.40
2018-08-23T11:38:26.464Z,33.60
2018-08-23T11:40:54.839Z,33.60
2018-08-23T11:43:23.247Z,33.50
2018-08-23T11:46:02.021Z,33.50
2018-08-23T11:48:30.572Z,33.20
2018-08-23T11:50:59.780Z,32.20
2018-08-23T11:53:28.427Z,31.90
2018-08-23T11:55:56.545Z,32.20
2018-08-23T11:58:25.128Z,32.40
2018-08-23T12:00:58.084Z,32.40
2018-08-23T12:03:26.506Z,32.60
2018-08-23T12:05:54.861Z,32.60
2018-08-23T12:08:23.234Z,32.60
2018-08-23T12:10:52.703Z,32.30
2018-08-23T12:13:21.202Z,32.50
2018-08-23T12:15:49.628Z,32.80
2018-08-23T12:18:18.007Z,32.70
2018-08-23T12:20:46.310Z,32.80
2018-08-23T12:23:14.653Z,32.70
2018-08-23T12:25:43.107Z,31.50
2018-08-23T12:28:16.754Z,31.60
2018-08-23T12:30:45.183Z,31.70
2018-08-23T12:33:13.604Z,31.80
2018-08-23T12:35:41.910Z,32.00
2018-08-23T12:38:17.504Z,32.10
2018-08-23T12:40:51.351Z,32.10
2018-08-23T12:43:21.943Z,31.50
2018-08-23T12:45:50.310Z,31.10
2018-08-23T12:48:18.682Z,30.90
2018-08-23T12:50:47.183Z,31.00
2018-08-23T12:53:15.583Z,31.20
2018-08-23T12:55:43.909Z,31.30
2018-08-23T12:58:13.402Z,31.10
2018-08-23T13:00:42.712Z,31.00
2018-08-23T13:03:11.382Z,31.20
2018-08-23T13:05:40.148Z,31.20
2018-08-23T13:08:08.667Z,31.30
2018-08-23T13:10:37.639Z,31.30
2018-08-23T13:13:06.317Z,31.40
2018-08-23T13:15:34.946Z,31.40
2018-08-23T13:18:04.043Z,31.20
2018-08-23T13:20:32.427Z,31.10
2018-08-23T13:23:00.805Z,30.70
2018-08-23T13:25:29.225Z,30.40
2018-08-23T13:27:57.689Z,30.40
2018-08-23T13:30:26.139Z,30.40
2018-08-23T13:32:54.413Z,30.00
2018-08-23T13:35:24.648Z,30.10
2018-08-23T13:37:53.060Z,29.80
2018-08-23T13:40:21.424Z,29.90
2018-08-23T13:42:50.325Z,30.40
2018-08-23T13:45:18.732Z,30.70
2018-08-23T13:47:47.103Z,30.80
2018-08-23T13:50:15.446Z,30.50
2018-08-23T13:52:43.964Z,30.40
2018-08-23T13:55:12.286Z,30.40
2018-08-23T13:57:40.655Z,30.40
2018-08-23T14:00:13.272Z,30.30
2018-08-23T14:02:41.837Z,30.20
2018-08-23T14:05:10.265Z,30.10
2018-08-23T14:07:38.735Z,29.90
2018-08-23T14:10:07.271Z,30.00
2018-08-23T14:12:35.714Z,30.00
2018-08-23T14:15:04.117Z,30.00
2018-08-23T14:17:32.507Z,30.00
2018-08-23T14:20:00.873Z,29.90
2018-08-23T14:22:29.227Z,30.00
2018-08-23T14:24:57.691Z,30.00
2018-08-23T14:27:26.063Z,29.90
2018-08-23T14:29:54.352Z,29.90
2018-08-23T14:32:22.811Z,29.90
2018-08-23T14:34:51.241Z,30.00
2018-08-23T14:37:19.615Z,30.00
2018-08-23T14:39:48.134Z,29.90
2018-08-23T14:42:16.540Z,29.90
2018-08-23T14:44:44.843Z,29.90
2018-08-23T14:47:18.433Z,29.80
2018-08-23T14:49:46.890Z,29.80
2018-08-23T14:52:15.347Z,29.60
2018-08-23T14:54:43.869Z,29.60
2018-08-23T14:57:17.600Z,29.60
2018-08-23T14:59:45.933Z,29.50
2018-08-23T15:02:14.517Z,29.40
2018-08-23T15:04:47.635Z,29.20
2018-08-23T15:07:16.634Z,28.00
2018-08-23T15:09:45.004Z,26.90
2018-08-23T15:12:13.387Z,26.20
2018-08-23T15:14:41.715Z,25.40
2018-08-23T15:17:11.485Z,25.00
2018-08-23T15:19:40.213Z,24.70
2018-08-23T15:22:09.105Z,24.60
2018-08-23T15:24:37.600Z,24.50
2018-08-23T15:27:06.495Z,24.60
2018-08-23T15:29:34.727Z,24.60
2018-08-23T15:32:03.311Z,24.50
2018-08-23T15:34:31.786Z,24.40
2018-08-23T15:37:00.130Z,24.10
2018-08-23T15:39:28.508Z,24.00
2018-08-23T15:41:56.958Z,24.00
2018-08-23T15:44:25.357Z,23.90
2018-08-23T15:46:53.759Z,24.00
2018-08-23T15:49:22.169Z,23.80
2018-08-23T15:51:50.560Z,23.50
2018-08-23T15:54:19.988Z,23.30
2018-08-23T15:56:48.375Z,23.20
2018-08-23T15:59:16.779Z,23.60
2018-08-23T16:01:45.185Z,23.60
2018-08-23T16:04:13.505Z,24.00
2018-08-23T16:06:42.013Z,24.00
2018-08-23T16:09:12.864Z,24.20
2018-08-23T16:11:42.148Z,24.20
2018-08-23T16:14:10.534Z,24.20
2018-08-23T16:16:44.419Z,23.90
2018-08-23T16:20:16.209Z,24.00
2018-08-23T16:22:45.107Z,24.10
2018-08-23T16:25:13.678Z,24.30
2018-08-23T16:27:42.155Z,24.10
2018-08-23T16:30:10.695Z,24.30
2018-08-23T16:32:39.226Z,24.10
2018-08-23T16:35:07.618Z,24.20
2018-08-23T16:37:36.165Z,24.40
2018-08-23T16:40:05.079Z,24.40
2018-08-23T16:42:33.554Z,24.40
2018-08-23T16:45:02.120Z,24.30
2018-08-23T16:47:30.675Z,24.40
2018-08-23T16:49:59.105Z,24.50
2018-08-23T16:52:27.506Z,24.70
2018-08-23T16:54:56.021Z,24.70
2018-08-23T16:57:24.443Z,24.70
2018-08-23T16:59:52.895Z,24.80
2018-08-23T17:02:21.420Z,24.80
2018-08-23T17:04:49.817Z,24.90
2018-08-23T17:07:18.201Z,24.80
2018-08-23T17:09:46.587Z,24.70
2018-08-23T17:12:15.029Z,24.70
2018-08-23T17:14:43.446Z,24.70
2018-08-23T17:17:18.050Z,24.70
2018-08-23T17:19:46.488Z,24.70
2018-08-23T17:22:14.917Z,24.60
2018-08-23T17:24:43.336Z,24.60
2018-08-23T17:27:11.760Z,24.60
2018-08-23T17:29:40.135Z,24.60
2018-08-23T17:32:08.783Z,24.70
2018-08-23T17:34:37.096Z,24.70
2018-08-23T17:37:05.667Z,24.60
2018-08-23T17:39:34.003Z,24.40
2018-08-23T17:42:02.338Z,24.40
2018-08-23T17:44:30.650Z,24.30
2018-08-23T17:46:59.050Z,24.40
2018-08-23T17:49:27.509Z,24.30
2018-08-23T17:51:55.893Z,24.30
2018-08-23T17:54:24.280Z,24.30
2018-08-23T17:56:52.627Z,24.30
2018-08-23T17:59:21.111Z,24.30
2018-08-23T18:01:49.446Z,24.30
2018-08-23T18:04:17.809Z,24.30
2018-08-23T18:06:46.429Z,24.30
2018-08-23T18:09:14.932Z,24.20
2018-08-23T18:11:43.364Z,24.20
2018-08-23T18:14:11.739Z,24.00
2018-08-23T18:16:45.393Z,24.00
2018-08-23T18:19:13.751Z,23.90
2018-08-23T18:21:42.718Z,24.00
2018-08-23T18:24:11.271Z,23.90
2018-08-23T18:26:39.629Z,23.80
2018-08-23T18:29:08.071Z,23.80
2018-08-23T18:31:36.454Z,23.80
2018-08-23T18:34:05.277Z,23.70
2018-08-23T18:36:33.790Z,23.70
2018-08-23T18:39:02.609Z,23.70
2018-08-23T18:41:30.994Z,23.90
2018-08-23T18:43:59.388Z,23.80
2018-08-23T18:46:27.705Z,23.50
2018-08-23T18:48:59.059Z,23.60
2018-08-23T18:51:29.273Z,23.60
2018-08-23T18:53:58.169Z,23.70
2018-08-23T18:56:27.050Z,23.60
2018-08-23T18:58:55.810Z,23.20
2018-08-23T19:01:24.212Z,23.40
2018-08-23T19:03:52.989Z,23.40
2018-08-23T19:06:25.606Z,23.30
2018-08-23T19:08:54.032Z,23.20
2018-08-23T19:11:22.452Z,23.20
2018-08-23T19:13:50.848Z,23.30
2018-08-23T19:16:24.817Z,23.10
2018-08-23T19:18:53.471Z,23.10
2018-08-23T19:21:21.830Z,23.00
2018-08-23T19:23:50.260Z,22.80
2018-08-23T19:26:18.637Z,22.70
2018-08-23T19:28:46.999Z,22.70
2018-08-23T19:31:15.448Z,22.70
2018-08-23T19:33:43.921Z,22.60
2018-08-23T19:36:12.395Z,22.70
2018-08-23T19:38:41.563Z,22.60
2018-08-23T19:41:09.976Z,22.70
2018-08-23T19:43:38.427Z,22.70
2018-08-23T19:46:12.263Z,22.70
2018-08-23T19:48:41.152Z,22.50
2018-08-23T19:51:09.513Z,22.50
2018-08-23T19:53:37.874Z,22.50
2018-08-23T19:56:06.917Z,22.40
2018-08-23T19:58:35.422Z,22.30
2018-08-23T20:01:03.852Z,22.20
2018-08-23T20:03:32.214Z,22.30
2018-08-23T20:06:00.713Z,22.30
2018-08-23T20:08:29.114Z,22.40
2018-08-23T20:10:57.522Z,22.30
2018-08-23T20:13:25.931Z,22.30
2018-08-23T20:15:54.782Z,22.30
2018-08-23T20:18:23.749Z,22.30
2018-08-23T20:20:52.561Z,22.20
2018-08-23T20:23:21.277Z,22.20
2018-08-23T20:25:49.933Z,22.20
2018-08-23T20:28:19.348Z,22.00
2018-08-23T20:30:48.656Z,21.90
2018-08-23T20:33:18.758Z,21.80
2018-08-23T20:35:47.268Z,21.80
2018-08-23T20:38:15.674Z,21.80
2018-08-23T20:40:44.061Z,21.90
2018-08-23T20:43:12.378Z,21.80
2018-08-23T20:45:40.855Z,21.60
2018-08-23T20:48:09.170Z,21.60
2018-08-23T20:50:37.605Z,21.70
2018-08-23T20:53:06.001Z,21.90
2018-08-23T20:55:34.353Z,21.80
2018-08-23T20:58:03.048Z,21.70
2018-08-23T21:00:31.475Z,21.80
2018-08-23T21:02:59.936Z,21.70
2018-08-23T21:05:28.355Z,21.80
2018-08-23T21:07:57.751Z,21.60
2018-08-23T21:10:26.289Z,21.40
2018-08-23T21:12:54.721Z,21.50
2018-08-23T21:15:23.135Z,21.60
2018-08-23T21:17:51.620Z,21.60
2018-08-23T21:20:20.057Z,21.70
2018-08-23T21:22:48.562Z,21.60
2018-08-23T21:25:17.102Z,21.60
2018-08-23T21:27:47.050Z,21.50
2018-08-23T21:30:16.173Z,21.60
2018-08-23T21:32:44.909Z,21.60
2018-08-23T21:35:13.438Z,21.60
2018-08-23T21:37:41.789Z,21.50
2018-08-23T21:40:10.074Z,21.50
2018-08-23T21:42:38.641Z,21.40
2018-08-23T21:45:07.327Z,21.40
2018-08-23T21:47:35.784Z,21.40
2018-08-23T21:50:04.349Z,21.30
2018-08-23T21:52:32.778Z,21.20
2018-08-23T21:55:01.174Z,21.20
2018-08-23T21:57:29.609Z,21.20
2018-08-23T21:59:57.975Z,21.10
2018-08-23T22:02:26.404Z,21.10
2018-08-23T22:04:56.051Z,21.00
2018-08-23T22:07:24.448Z,21.00
2018-08-23T22:09:54.121Z,21.00
2018-08-23T22:12:23.550Z,21.00
2018-08-23T22:14:53.072Z,21.00
2018-08-23T22:17:22.063Z,20.90
2018-08-23T22:19:51.241Z,21.00
2018-08-23T22:22:19.641Z,20.90
2018-08-23T22:24:48.011Z,20.80
2018-08-23T22:27:16.472Z,20.80
2018-08-23T22:29:45.084Z,20.70
2018-08-23T22:32:13.548Z,20.60
2018-08-23T22:34:41.940Z,20.60
2018-08-23T22:37:10.446Z,20.50
2018-08-23T22:39:38.896Z,20.40
2018-08-23T22:42:07.255Z,20.50
2018-08-23T22:44:35.660Z,20.40
2018-08-23T22:47:04.091Z,20.50
2018-08-23T22:49:32.483Z,20.40
2018-08-23T22:52:00.890Z,20.30
2018-08-23T22:54:29.225Z,20.20
2018-08-23T22:56:57.683Z,20.20
2018-08-23T22:59:26.056Z,20.20
2018-08-23T23:01:54.410Z,20.10
2018-08-23T23:04:27.649Z,20.10
2018-08-23T23:06:56.861Z,20.20
2018-08-23T23:09:25.299Z,20.10
2018-08-23T23:11:53.683Z,20.00
2018-08-23T23:14:22.101Z,20.00
2018-08-23T23:16:55.332Z,20.00
2018-08-23T23:19:24.572Z,20.00
2018-08-23T23:21:52.904Z,20.10
2018-08-23T23:24:26.683Z,20.10
2018-08-23T23:26:56.209Z,20.00
2018-08-23T23:29:25.124Z,20.00
2018-08-23T23:31:53.548Z,20.00
2018-08-23T23:34:21.918Z,19.90
2018-08-23T23:36:50.269Z,19.90
2018-08-23T23:39:18.662Z,19.80
2018-08-23T23:41:47.009Z,19.80
2018-08-23T23:44:15.409Z,19.80
2018-08-23T23:46:43.763Z,19.80
2018-08-23T23:49:12.162Z,19.80
2018-08-23T23:51:41.045Z,19.80
2018-08-23T23:54:09.683Z,19.80
2018-08-23T23:56:38.121Z,19.90
2018-08-23T23:59:06.867Z,19.80
